createdAt,value
2022-08-05T00:01:28.625Z,26.46
2022-08-05T00:04:33.135Z,26.41
2022-08-05T00:08:00.093Z,26.41
2022-08-05T00:11:04.085Z,26.35
2022-08-05T00:14:12.020Z,26.29
2022-08-05T00:17:20.861Z,26.21
2022-08-05T00:20:28.952Z,26.20
2022-08-05T00:23:46.579Z,26.09
2022-08-05T00:26:57.044Z,25.99
2022-08-05T00:30:03.168Z,26.00
2022-08-05T00:34:41.893Z,25.89
2022-08-05T00:37:13.280Z,25.77
2022-08-05T00:39:58.613Z,25.63
2022-08-05T00:43:07.576Z,25.54
2022-08-05T00:46:14.664Z,25.53
2022-08-05T00:49:20.140Z,25.49
2022-08-05T00:52:28.233Z,25.43
2022-08-05T00:55:42.365Z,25.43
2022-08-05T00:58:46.885Z,25.37
2022-08-05T01:01:54.751Z,25.32
2022-08-05T01:04:59.259Z,25.30
2022-08-05T01:08:40.389Z,25.25
2022-08-05T01:11:37.207Z,25.19
2022-08-05T01:14:46.460Z,25.13
2022-08-05T01:17:56.763Z,25.04
2022-08-05T01:21:12.420Z,25.03
2022-08-05T01:24:52.490Z,25.06
2022-08-05T01:28:16.241Z,25.00
2022-08-05T01:31:27.777Z,24.95
2022-08-05T01:34:38.011Z,24.91
2022-08-05T01:37:50.368Z,24.92
2022-08-05T01:41:00.014Z,24.86
2022-08-05T01:44:09.624Z,24.83
2022-08-05T01:47:18.835Z,24.77
2022-08-05T01:50:29.986Z,24.75
2022-08-05T01:53:57.036Z,24.68
2022-08-05T01:58:29.708Z,24.68
2022-08-05T02:00:30.533Z,24.65
2022-08-05T02:03:38.996Z,24.58
2022-08-05T02:06:45.150Z,24.49
2022-08-05T02:09:50.385Z,24.43
2022-08-05T02:13:01.329Z,24.38
2022-08-05T02:16:27.574Z,24.38
2022-08-05T02:19:35.636Z,24.36
2022-08-05T02:22:58.314Z,24.26
2022-08-05T02:26:07.336Z,24.26
2022-08-05T02:29:21.401Z,24.26
2022-08-05T02:32:31.849Z,24.25
2022-08-05T02:35:44.890Z,24.21
2022-08-05T02:39:02.827Z,24.14
2022-08-05T02:42:08.146Z,24.12
2022-08-05T02:45:14.266Z,24.08
2022-08-05T02:48:29.455Z,24.04
2022-08-05T02:52:03.393Z,23.99
2022-08-05T02:55:05.417Z,24.02
2022-08-05T02:58:15.909Z,24.02
2022-08-05T03:01:24.405Z,23.96
2022-08-05T03:04:29.771Z,23.92
2022-08-05T03:08:00.372Z,23.90
2022-08-05T03:11:53.518Z,23.88
2022-08-05T03:14:22.373Z,23.81
2022-08-05T03:17:26.957Z,23.75
2022-08-05T03:20:31.424Z,23.68
2022-08-05T03:23:43.152Z,23.58
2022-08-05T03:26:49.642Z,23.50
2022-08-05T03:30:07.770Z,23.46
2022-08-05T03:33:13.799Z,23.46
2022-08-05T03:36:29.813Z,23.40
2022-08-05T03:39:47.148Z,23.34
2022-08-05T03:43:16.056Z,23.31
2022-08-05T03:46:24.020Z,23.30
2022-08-05T03:49:51.282Z,23.32
2022-08-05T03:55:00.073Z,23.30
2022-08-05T03:56:42.252Z,23.30
2022-08-05T04:00:09.995Z,23.36
2022-08-05T04:03:28.251Z,23.39
2022-08-05T04:06:34.606Z,23.39
2022-08-05T04:09:38.696Z,23.41
2022-08-05T04:12:59.046Z,23.41
2022-08-05T04:16:04.892Z,23.36
2022-08-05T04:19:12.791Z,23.32
2022-08-05T04:22:20.618Z,23.32
2022-08-05T04:25:56.966Z,23.29
2022-08-05T04:28:51.977Z,23.29
2022-08-05T04:31:56.880Z,23.31
2022-08-05T04:35:01.166Z,23.34
2022-08-05T04:38:06.588Z,23.38
2022-08-05T04:41:11.294Z,23.38
2022-08-05T04:44:16.206Z,23.15
2022-08-05T04:47:38.620Z,23.14
2022-08-05T04:51:01.637Z,23.12
2022-08-05T04:54:14.884Z,23.20
2022-08-05T04:57:18.913Z,23.26
2022-08-05T05:00:23.272Z,23.22
2022-08-05T05:03:28.043Z,23.20
2022-08-05T05:06:49.386Z,23.17
2022-08-05T05:10:05.299Z,23.24
2022-08-05T05:13:12.059Z,23.19
2022-08-05T05:16:17.324Z,23.15
2022-08-05T05:19:27.506Z,23.18
2022-08-05T05:22:44.172Z,23.22
2022-08-05T05:25:48.299Z,23.16
2022-08-05T05:28:52.277Z,23.07
2022-08-05T05:31:56.983Z,23.09
2022-08-05T05:35:00.863Z,23.09
2022-08-05T05:38:09.466Z,23.14
2022-08-05T05:41:18.500Z,23.17
2022-08-05T05:44:36.689Z,23.16
2022-08-05T05:48:06.443Z,23.20
2022-08-05T05:51:14.918Z,23.32
2022-08-05T05:54:20.313Z,23.50
2022-08-05T05:57:24.744Z,23.57
2022-08-05T06:00:46.613Z,23.67
2022-08-05T06:04:01.728Z,23.87
2022-08-05T06:07:07.786Z,24.10
2022-08-05T06:10:15.134Z,24.39
2022-08-05T06:13:19.801Z,24.49
2022-08-05T06:16:32.754Z,24.60
2022-08-05T06:19:40.937Z,24.58
2022-08-05T06:22:49.396Z,24.50
2022-08-05T06:26:13.255Z,24.44
2022-08-05T06:29:25.423Z,24.32
2022-08-05T06:32:44.515Z,24.18
2022-08-05T06:36:03.485Z,24.06
2022-08-05T06:39:12.421Z,23.90
2022-08-05T06:42:17.395Z,23.86
2022-08-05T06:45:44.038Z,23.98
2022-08-05T06:48:56.813Z,23.96
2022-08-05T06:52:03.717Z,23.99
2022-08-05T06:55:08.242Z,24.03
2022-08-05T06:58:20.105Z,24.04
2022-08-05T07:01:34.433Z,24.05
2022-08-05T07:04:38.604Z,24.10
2022-08-05T07:07:45.190Z,24.10
2022-08-05T07:10:52.865Z,24.11
2022-08-05T07:14:28.890Z,24.10
2022-08-05T07:18:00.090Z,24.23
2022-08-05T07:20:58.915Z,24.39
2022-08-05T07:24:11.383Z,24.55
2022-08-05T07:27:15.460Z,24.44
2022-08-05T07:30:25.542Z,24.50
2022-08-05T07:33:36.707Z,24.55
2022-08-05T07:36:42.117Z,24.63
2022-08-05T07:40:04.215Z,24.81
2022-08-05T07:43:20.371Z,25.06
2022-08-05T07:46:27.454Z,25.04
2022-08-05T07:49:34.222Z,25.07
2022-08-05T07:52:48.069Z,25.09
2022-08-05T07:56:06.395Z,25.17
2022-08-05T07:59:16.377Z,25.19
2022-08-05T08:02:26.495Z,25.39
2022-08-05T08:05:39.496Z,25.58
2022-08-05T08:08:44.376Z,25.66
2022-08-05T08:11:58.920Z,26.03
2022-08-05T08:15:14.136Z,26.24
2022-08-05T08:18:20.827Z,25.88
2022-08-05T08:21:24.786Z,26.03
2022-08-05T08:24:51.449Z,26.19
2022-08-05T08:27:55.164Z,26.31
2022-08-05T08:30:59.614Z,26.49
2022-08-05T08:34:04.992Z,26.68
2022-08-05T08:37:09.508Z,28.15
2022-08-05T08:40:13.789Z,29.39
2022-08-05T08:45:23.704Z,28.77
2022-08-05T08:46:48.193Z,28.05
2022-08-05T08:50:22.509Z,27.31
2022-08-05T08:53:19.189Z,26.23
2022-08-05T08:56:27.073Z,26.14
2022-08-05T08:59:33.417Z,26.01
2022-08-05T09:02:38.779Z,26.20
2022-08-05T09:06:08.901Z,27.38
2022-08-05T09:09:07.914Z,28.57
2022-08-05T09:12:20.807Z,29.23
2022-08-05T09:15:32.120Z,28.74
2022-08-05T09:18:43.845Z,29.06
2022-08-05T09:22:17.512Z,29.25
2022-08-05T09:25:24.275Z,29.40
2022-08-05T09:28:43.905Z,29.27
2022-08-05T09:32:42.978Z,28.79
2022-08-05T09:35:30.144Z,28.49
2022-08-05T09:38:34.286Z,28.05
2022-08-05T09:41:59.770Z,27.60
2022-08-05T09:46:04.821Z,27.56
2022-08-05T09:48:34.401Z,27.37
2022-08-05T09:51:39.877Z,27.13
2022-08-05T09:54:58.832Z,27.40
2022-08-05T09:58:12.740Z,27.60
2022-08-05T10:01:22.522Z,27.64
2022-08-05T10:04:39.671Z,27.73
2022-08-05T10:08:35.379Z,27.80
2022-08-05T10:11:18.099Z,27.82
2022-08-05T10:14:24.504Z,28.05
2022-08-05T10:17:37.921Z,27.95
2022-08-05T10:20:50.053Z,27.84
2022-08-05T10:23:59.502Z,27.77
2022-08-05T10:27:04.977Z,27.75
2022-08-05T10:31:19.958Z,27.63
2022-08-05T10:33:36.171Z,27.52
2022-08-05T10:36:41.863Z,27.44
2022-08-05T10:39:59.322Z,27.51
2022-08-05T10:43:36.470Z,27.98
2022-08-05T10:46:50.692Z,28.10
2022-08-05T10:50:20.568Z,27.76
2022-08-05T10:53:55.972Z,28.15
2022-08-05T10:57:02.523Z,28.28
2022-08-05T11:00:24.044Z,28.11
2022-08-05T11:03:29.234Z,28.17
2022-08-05T11:06:35.300Z,28.39
2022-08-05T11:09:46.591Z,28.54
2022-08-05T11:12:55.173Z,28.55
2022-08-05T11:16:23.238Z,28.15
2022-08-05T11:20:17.095Z,28.43
2022-08-05T11:24:02.752Z,28.47
2022-08-05T11:27:51.116Z,28.57
2022-08-05T11:30:58.217Z,28.44
2022-08-05T11:34:05.735Z,28.28
2022-08-05T11:38:29.840Z,28.48
2022-08-05T11:41:34.170Z,28.62
2022-08-05T11:44:52.766Z,28.77
2022-08-05T11:47:57.931Z,28.99
2022-08-05T11:51:02.798Z,29.03
2022-08-05T11:54:07.849Z,29.04
2022-08-05T11:57:24.817Z,29.09
2022-08-05T12:00:31.221Z,29.31
2022-08-05T12:03:55.520Z,29.37
2022-08-05T12:07:00.913Z,29.32
2022-08-05T12:10:09.407Z,29.33
2022-08-05T12:13:27.855Z,29.50
2022-08-05T12:16:45.499Z,29.63
2022-08-05T12:20:26.718Z,29.77
2022-08-05T12:23:17.652Z,29.85
2022-08-05T12:26:21.561Z,29.90
2022-08-05T12:29:29.116Z,29.66
2022-08-05T12:32:50.683Z,29.43
2022-08-05T12:35:58.184Z,29.23
2022-08-05T12:39:05.517Z,29.14
2022-08-05T12:42:16.426Z,29.17
2022-08-05T12:45:22.141Z,29.27
2022-08-05T12:48:45.202Z,29.58
2022-08-05T12:52:13.049Z,29.83
2022-08-05T12:55:26.646Z,30.07
2022-08-05T12:58:49.932Z,30.35
2022-08-05T13:02:07.902Z,30.56
2022-08-05T13:05:14.453Z,30.96
2022-08-05T13:08:19.245Z,30.89
2022-08-05T13:12:02.943Z,30.92
2022-08-05T13:15:05.682Z,30.96
2022-08-05T13:18:12.228Z,31.02
2022-08-05T13:21:23.810Z,30.78
2022-08-05T13:24:51.256Z,30.70
2022-08-05T13:27:57.629Z,30.45
2022-08-05T13:31:03.337Z,30.05
2022-08-05T13:34:22.109Z,29.73
2022-08-05T13:37:34.411Z,29.65
2022-08-05T13:40:50.040Z,29.51
2022-08-05T13:43:56.634Z,29.56
2022-08-05T13:47:05.172Z,29.96
2022-08-05T13:50:16.646Z,30.39
2022-08-05T13:53:20.945Z,30.80
2022-08-05T13:56:25.576Z,30.86
2022-08-05T13:59:30.723Z,30.68
2022-08-05T14:02:35.200Z,30.43
2022-08-05T14:06:04.895Z,30.15
2022-08-05T14:09:08.381Z,30.05
2022-08-05T14:12:17.466Z,30.02
2022-08-05T14:16:08.191Z,30.05
2022-08-05T14:18:46.587Z,29.84
2022-08-05T14:22:08.526Z,29.68
2022-08-05T14:25:21.933Z,29.64
2022-08-05T14:28:28.497Z,29.71
2022-08-05T14:32:02.672Z,29.83
2022-08-05T14:34:57.729Z,29.92
2022-08-05T14:38:01.999Z,29.90
2022-08-05T14:41:07.468Z,29.82
2022-08-05T14:44:20.612Z,29.92
2022-08-05T14:48:03.210Z,29.77
2022-08-05T14:50:50.272Z,29.74
2022-08-05T14:54:26.390Z,29.64
2022-08-05T14:57:19.165Z,29.71
2022-08-05T15:00:27.756Z,29.89
2022-08-05T15:03:33.728Z,29.95
2022-08-05T15:06:38.548Z,29.81
2022-08-05T15:09:52.463Z,29.74
2022-08-05T15:13:03.923Z,29.73
2022-08-05T15:16:11.011Z,29.75
2022-08-05T15:19:23.855Z,29.59
2022-08-05T15:22:28.700Z,29.40
2022-08-05T15:25:51.966Z,29.23
2022-08-05T15:28:57.580Z,28.62
2022-08-05T15:32:03.372Z,27.42
2022-08-05T15:35:12.523Z,26.85
2022-08-05T15:38:35.350Z,26.68
2022-08-05T15:41:55.617Z,26.24
2022-08-05T15:45:03.563Z,25.79
2022-08-05T15:48:10.564Z,25.62
2022-08-05T15:51:22.459Z,25.58
2022-08-05T15:54:46.517Z,25.31
2022-08-05T15:57:50.599Z,25.19
2022-08-05T16:01:04.434Z,25.18
2022-08-05T16:04:18.802Z,24.92
2022-08-05T16:07:23.057Z,24.75
2022-08-05T16:10:27.375Z,24.47
2022-08-05T16:13:34.133Z,24.23
2022-08-05T16:16:39.350Z,24.11
2022-08-05T16:20:03.489Z,24.03
2022-08-05T16:23:08.619Z,24.04
2022-08-05T16:26:13.306Z,23.91
2022-08-05T16:29:18.221Z,23.49
2022-08-05T16:32:29.350Z,23.22
2022-08-05T16:35:43.075Z,23.19
2022-08-05T16:38:54.827Z,23.03
2022-08-05T16:42:14.415Z,22.83
2022-08-05T16:46:07.489Z,22.57
2022-08-05T16:48:47.651Z,22.44
2022-08-05T16:51:56.945Z,22.43
2022-08-05T16:55:01.074Z,22.56
2022-08-05T16:58:08.627Z,22.50
2022-08-05T17:01:13.338Z,22.52
2022-08-05T17:04:18.768Z,22.38
2022-08-05T17:07:43.754Z,22.30
2022-08-05T17:10:47.145Z,22.15
2022-08-05T17:14:00.379Z,22.17
2022-08-05T17:17:15.037Z,22.09
2022-08-05T17:20:19.664Z,22.00
2022-08-05T17:24:03.623Z,21.95
2022-08-05T17:26:48.335Z,21.91
2022-08-05T17:29:59.648Z,21.71
2022-08-05T17:33:07.753Z,21.70
2022-08-05T17:36:33.722Z,21.59
2022-08-05T17:39:37.669Z,21.71
2022-08-05T17:42:50.768Z,21.78
2022-08-05T17:45:56.654Z,21.77
2022-08-05T17:49:00.838Z,21.88
2022-08-05T17:52:04.705Z,21.91
2022-08-05T17:55:11.790Z,21.80
2022-08-05T17:58:17.626Z,21.62
2022-08-05T18:01:49.380Z,21.60
2022-08-05T18:04:55.161Z,21.50
2022-08-05T18:07:59.257Z,21.44
2022-08-05T18:11:04.029Z,21.48
2022-08-05T18:14:13.584Z,21.51
2022-08-05T18:18:00.630Z,21.54
2022-08-05T18:20:48.839Z,21.41
2022-08-05T18:23:54.427Z,21.43
2022-08-05T18:26:58.846Z,21.54
2022-08-05T18:30:03.459Z,21.52
2022-08-05T18:33:08.608Z,21.51
2022-08-05T18:36:19.193Z,21.43
2022-08-05T18:40:34.344Z,21.35
2022-08-05T18:42:47.820Z,21.27
2022-08-05T18:45:52.018Z,21.24
2022-08-05T18:49:20.289Z,21.22
2022-08-05T18:52:35.689Z,21.19
2022-08-05T18:55:40.617Z,21.20
2022-08-05T18:58:44.645Z,21.21
2022-08-05T19:01:56.983Z,21.16
2022-08-05T19:06:06.354Z,21.01
2022-08-05T19:08:30.798Z,20.85
2022-08-05T19:11:58.654Z,20.83
2022-08-05T19:15:02.701Z,20.84
2022-08-05T19:18:09.314Z,20.87
2022-08-05T19:21:15.644Z,20.87
2022-08-05T19:24:34.390Z,20.86
2022-08-05T19:27:39.381Z,20.93
2022-08-05T19:30:48.798Z,20.92
2022-08-05T19:33:56.643Z,20.95
2022-08-05T19:37:01.261Z,20.96
2022-08-05T19:40:08.165Z,20.98
2022-08-05T19:44:03.849Z,21.03
2022-08-05T19:46:39.546Z,21.01
2022-08-05T19:49:46.094Z,21.00
2022-08-05T19:52:50.609Z,20.91
2022-08-05T19:56:15.367Z,20.84
2022-08-05T19:59:51.638Z,20.77
2022-08-05T20:02:43.203Z,20.74
2022-08-05T20:05:51.276Z,20.66
2022-08-05T20:08:56.013Z,20.67
2022-08-05T20:11:59.978Z,20.66
2022-08-05T20:15:08.735Z,20.65
2022-08-05T20:18:33.889Z,20.61
2022-08-05T20:21:38.341Z,20.56
2022-08-05T20:24:42.712Z,20.55
2022-08-05T20:27:47.967Z,20.53
2022-08-05T20:30:54.246Z,20.51
2022-08-05T20:33:58.258Z,20.48
2022-08-05T20:37:02.199Z,20.42
2022-08-05T20:40:09.049Z,20.41
2022-08-05T20:43:14.411Z,20.40
2022-08-05T20:46:25.215Z,20.26
2022-08-05T20:49:33.212Z,20.18
2022-08-05T20:52:43.905Z,20.15
2022-08-05T20:56:07.399Z,20.10
2022-08-05T20:59:19.205Z,20.04
2022-08-05T21:02:30.433Z,20.05
2022-08-05T21:05:53.697Z,20.05
2022-08-05T21:08:58.824Z,20.08
2022-08-05T21:12:10.553Z,20.10
2022-08-05T21:15:17.425Z,20.05
2022-08-05T21:18:21.565Z,20.07
2022-08-05T21:21:39.536Z,20.05
2022-08-05T21:24:51.577Z,20.02
2022-08-05T21:27:56.494Z,20.00
2022-08-05T21:31:01.550Z,19.99
2022-08-05T21:34:05.661Z,19.93
2022-08-05T21:37:11.274Z,19.89
2022-08-05T21:40:16.956Z,19.84
2022-08-05T21:43:24.586Z,19.79
2022-08-05T21:46:29.688Z,19.79
2022-08-05T21:50:00.300Z,19.79
2022-08-05T21:52:58.722Z,19.80
2022-08-05T21:56:16.950Z,19.77
2022-08-05T21:59:23.884Z,19.73
2022-08-05T22:02:29.407Z,19.74
2022-08-05T22:05:48.269Z,19.68
2022-08-05T22:08:53.398Z,19.68
2022-08-05T22:11:59.782Z,19.63
2022-08-05T22:15:10.251Z,19.66
2022-08-05T22:18:20.594Z,19.66
2022-08-05T22:21:29.850Z,19.67
2022-08-05T22:24:55.690Z,19.63
2022-08-05T22:28:08.892Z,19.62
2022-08-05T22:31:15.466Z,19.62
2022-08-05T22:34:25.603Z,19.59
2022-08-05T22:37:58.859Z,19.59
2022-08-05T22:40:57.418Z,19.66
2022-08-05T22:44:01.488Z,19.73
2022-08-05T22:47:06.522Z,19.77
2022-08-05T22:50:19.483Z,19.75
2022-08-05T22:53:25.836Z,19.75
2022-08-05T22:56:39.981Z,19.77
2022-08-05T22:59:51.902Z,19.70
2022-08-05T23:02:58.652Z,19.68
2022-08-05T23:06:02.595Z,19.67
2022-08-05T23:09:28.059Z,19.64
2022-08-05T23:12:32.612Z,19.64
2022-08-05T23:15:37.543Z,19.63
2022-08-05T23:18:43.675Z,19.62
2022-08-05T23:21:48.770Z,19.56
2022-08-05T23:24:53.619Z,19.54
2022-08-05T23:28:00.715Z,19.50
2022-08-05T23:31:16.542Z,19.50
2022-08-05T23:34:24.516Z,19.49
2022-08-05T23:37:34.309Z,19.50
2022-08-05T23:40:40.691Z,19.43
2022-08-05T23:44:06.385Z,19.33
2022-08-05T23:47:15.278Z,19.30
2022-08-05T23:50:20.287Z,19.32
2022-08-05T23:53:24.290Z,19.19
2022-08-05T23:56:32.304Z,19.09
